Portada
METAR-TAF:

METAR-TAF

Aeroports :

Aeroport Internacional Hassan I

Al-Aaiun, Marroc

latitud: 27-10N, longitud: 013-12-59W, altitud: 6 m

Observació

L'informe es va fer fa 18 hores i 9 minuts, a les 06:30 UTC
Vent 4 kt del Sud/Sud-Oest
Temperatura 13°C
Humitat 100%
Pressió 1016 hPa
Visibilitat: 7000 m
Cel ennuvolat a una alçada de 1500 ft

METAR: GMML 210630Z 20004KT 7000 BKN015 13/13 Q1016 NOSIG

Hora: 01:39 (00:39 UTC)

Pronòstic

L'informe es va fer fa 1 hora i 39 minuts, a les 23:00 UTC
Pronòstic vàlid del 22 a les 00 UTC al 23 a les 06 UTC
Vent 8 kt del Oest/Sud-Oest
Visibilitat: 8000 m
Escasses núvols a una alçada de 1000 ft
Probabilitat 40%
l' 22 a les 00 UTC al 22 a les 06 UTC
Visibilitat: 3000 m
boirina
Probabilitat 40%
l' 22 a les 01 UTC al 22 a les 10 UTC
Cel ennuvolat a una alçada de 1000 ft

TAF: GMML 212300Z 2200/2306 24008KT 8000 FEW010 PROB40 2200/2206 3000 BR PROB40 2201/2210 BKN010

Observacions i pronòstics meteorològics de més de 4000 aeroports (METAR i TAF).

Les estacions disponibles són els punts grocs i vermells al mapa.

Posi el ratolí al punt desitjat per veure el nom de l'estació.

Feu clic per veure les observacions i els pronòstics meteorològics.

Per canviar el mapa: feu clic els botons verds amb una creu de color negre per apropar; al botó verd amb un guió per allunyar la imatge; o en les fletxes verdes per a mapes adjacents.


METAR-TAF: